HBBA

Bujumbura International Airport

Bujumbura, Burundi
METAR HBBA 201300Z 18017KT 9000 FEW030TCU 29/14 Q1014 NOSIG
Observed Flight Rules
Jul-20 @ 13:00 UTC (an hour ago) Visual Flight Rules
Wind Visibility Clouds
180° at 17 knots 8,996 meters
  • Few at 3,000' AGL
Temperatures Readings
Current 29°C / 84°F
Dewpoint 14°C / 57°F
Humidity 40%
Altimeter 29.94" Hg
Pressure 1014 hPa
Elevation 783
METAR HBBA 201300Z 18017KT 9000 FEW030TCU 29/14 Q1014 NOSIG
Observed Flight Rules
Jul-20 @ 13:00 UTC
(an hour ago)
VFR
Wind Visibility
180° at 17 knots 8,996 meters
Clouds
  • Few at 3,000' AGL
Temperature Dewpoint
29°C / 84°F 14°C / 57°F
Humidity Altimeter Pressure
40% 29.94" Hg 1014 hPa